sensor_id;sensor_type;location;lat;lon;timestamp;P1;durP1;ratioP1;P2;durP2;ratioP2
28003;SDS011;15330;51.234;6.754;2023-04-06T00:01:38;19.70;;;10.10;;
28003;SDS011;15330;51.234;6.754;2023-04-06T00:04:04;18.73;;;10.02;;
28003;SDS011;15330;51.234;6.754;2023-04-06T00:06:30;21.33;;;10.02;;
28003;SDS011;15330;51.234;6.754;2023-04-06T00:08:57;19.80;;;10.80;;
28003;SDS011;15330;51.234;6.754;2023-04-06T00:11:22;19.45;;;10.73;;
28003;SDS011;15330;51.234;6.754;2023-04-06T00:13:48;19.10;;;11.05;;
28003;SDS011;15330;51.234;6.754;2023-04-06T00:16:13;20.17;;;12.02;;
28003;SDS011;15330;51.234;6.754;2023-04-06T00:18:39;19.20;;;10.80;;
28003;SDS011;15330;51.234;6.754;2023-04-06T00:21:05;21.33;;;12.27;;
28003;SDS011;15330;51.234;6.754;2023-04-06T00:23:30;20.15;;;10.88;;
28003;SDS011;15330;51.234;6.754;2023-04-06T00:25:56;21.67;;;11.57;;
28003;SDS011;15330;51.234;6.754;2023-04-06T00:28:21;20.88;;;12.95;;
28003;SDS011;15330;51.234;6.754;2023-04-06T00:30:50;20.27;;;11.52;;
28003;SDS011;15330;51.234;6.754;2023-04-06T00:33:18;25.25;;;11.93;;
28003;SDS011;15330;51.234;6.754;2023-04-06T00:35:44;18.92;;;11.98;;
28003;SDS011;15330;51.234;6.754;2023-04-06T00:38:09;25.15;;;12.20;;
28003;SDS011;15330;51.234;6.754;2023-04-06T00:40:35;27.70;;;12.43;;
28003;SDS011;15330;51.234;6.754;2023-04-06T00:43:00;23.33;;;12.55;;
28003;SDS011;15330;51.234;6.754;2023-04-06T00:45:25;28.83;;;12.52;;
28003;SDS011;15330;51.234;6.754;2023-04-06T00:47:51;23.63;;;13.25;;
28003;SDS011;15330;51.234;6.754;2023-04-06T00:50:16;29.17;;;14.13;;
28003;SDS011;15330;51.234;6.754;2023-04-06T00:52:42;28.85;;;13.18;;
28003;SDS011;15330;51.234;6.754;2023-04-06T00:55:08;30.35;;;14.57;;
28003;SDS011;15330;51.234;6.754;2023-04-06T00:57:33;22.60;;;14.45;;
28003;SDS011;15330;51.234;6.754;2023-04-06T00:59:59;25.40;;;14.45;;
28003;SDS011;15330;51.234;6.754;2023-04-06T01:02:24;30.08;;;13.30;;
28003;SDS011;15330;51.234;6.754;2023-04-06T01:04:51;23.38;;;13.98;;
28003;SDS011;15330;51.234;6.754;2023-04-06T01:07:17;28.13;;;14.38;;
28003;SDS011;15330;51.234;6.754;2023-04-06T01:09:42;25.55;;;14.52;;
28003;SDS011;15330;51.234;6.754;2023-04-06T01:12:08;26.83;;;14.95;;
28003;SDS011;15330;51.234;6.754;2023-04-06T01:14:33;33.03;;;14.93;;
28003;SDS011;15330;51.234;6.754;2023-04-06T01:16:59;26.63;;;15.68;;
28003;SDS011;15330;51.234;6.754;2023-04-06T01:19:25;28.45;;;15.00;;
28003;SDS011;15330;51.234;6.754;2023-04-06T01:21:51;23.83;;;13.80;;
28003;SDS011;15330;51.234;6.754;2023-04-06T01:24:18;27.08;;;14.60;;
28003;SDS011;15330;51.234;6.754;2023-04-06T01:26:44;29.67;;;14.38;;
28003;SDS011;15330;51.234;6.754;2023-04-06T01:29:09;29.05;;;14.70;;
28003;SDS011;15330;51.234;6.754;2023-04-06T01:31:35;28.42;;;15.73;;
28003;SDS011;15330;51.234;6.754;2023-04-06T01:34:00;29.30;;;16.05;;
28003;SDS011;15330;51.234;6.754;2023-04-06T01:36:26;30.35;;;14.25;;
28003;SDS011;15330;51.234;6.754;2023-04-06T01:38:52;27.17;;;15.10;;
28003;SDS011;15330;51.234;6.754;2023-04-06T01:41:17;31.38;;;15.45;;
28003;SDS011;15330;51.234;6.754;2023-04-06T01:43:43;24.38;;;14.27;;
28003;SDS011;15330;51.234;6.754;2023-04-06T01:46:09;27.52;;;15.85;;
28003;SDS011;15330;51.234;6.754;2023-04-06T01:48:35;24.88;;;14.77;;
28003;SDS011;15330;51.234;6.754;2023-04-06T01:51:01;26.38;;;14.80;;
28003;SDS011;15330;51.234;6.754;2023-04-06T01:53:26;29.15;;;16.67;;
28003;SDS011;15330;51.234;6.754;2023-04-06T01:55:52;29.50;;;15.32;;
28003;SDS011;15330;51.234;6.754;2023-04-06T01:58:17;20.83;;;13.18;;
28003;SDS011;15330;51.234;6.754;2023-04-06T02:00:43;21.40;;;13.73;;
28003;SDS011;15330;51.234;6.754;2023-04-06T02:03:08;25.52;;;14.75;;
28003;SDS011;15330;51.234;6.754;2023-04-06T02:05:34;26.15;;;14.90;;
28003;SDS011;15330;51.234;6.754;2023-04-06T02:08:05;26.45;;;15.10;;
28003;SDS011;15330;51.234;6.754;2023-04-06T02:10:31;26.60;;;15.35;;
28003;SDS011;15330;51.234;6.754;2023-04-06T02:12:57;25.17;;;15.48;;
28003;SDS011;15330;51.234;6.754;2023-04-06T02:15:23;27.23;;;14.93;;
28003;SDS011;15330;51.234;6.754;2023-04-06T02:17:48;27.13;;;15.35;;
28003;SDS011;15330;51.234;6.754;2023-04-06T02:20:14;29.63;;;15.27;;
28003;SDS011;15330;51.234;6.754;2023-04-06T02:22:40;32.80;;;17.13;;
28003;SDS011;15330;51.234;6.754;2023-04-06T02:25:05;23.98;;;14.52;;
28003;SDS011;15330;51.234;6.754;2023-04-06T02:27:31;23.80;;;14.45;;
28003;SDS011;15330;51.234;6.754;2023-04-06T02:29:57;27.00;;;15.52;;
28003;SDS011;15330;51.234;6.754;2023-04-06T02:32:22;26.65;;;14.73;;
28003;SDS011;15330;51.234;6.754;2023-04-06T02:34:47;23.40;;;14.45;;
28003;SDS011;15330;51.234;6.754;2023-04-06T02:37:13;24.90;;;13.65;;
28003;SDS011;15330;51.234;6.754;2023-04-06T02:39:38;25.25;;;14.50;;
28003;SDS011;15330;51.234;6.754;2023-04-06T02:42:03;24.70;;;15.25;;
28003;SDS011;15330;51.234;6.754;2023-04-06T02:44:29;25.98;;;14.57;;
28003;SDS011;15330;51.234;6.754;2023-04-06T02:46:54;24.33;;;13.35;;
28003;SDS011;15330;51.234;6.754;2023-04-06T02:49:20;27.75;;;14.98;;
28003;SDS011;15330;51.234;6.754;2023-04-06T02:51:45;24.92;;;12.98;;
28003;SDS011;15330;51.234;6.754;2023-04-06T02:54:11;20.88;;;13.40;;
28003;SDS011;15330;51.234;6.754;2023-04-06T02:56:36;23.63;;;13.63;;
28003;SDS011;15330;51.234;6.754;2023-04-06T02:59:01;22.40;;;13.05;;
28003;SDS011;15330;51.234;6.754;2023-04-06T03:01:27;23.88;;;13.32;;
28003;SDS011;15330;51.234;6.754;2023-04-06T03:03:52;24.88;;;13.00;;
28003;SDS011;15330;51.234;6.754;2023-04-06T03:06:17;20.33;;;12.23;;
28003;SDS011;15330;51.234;6.754;2023-04-06T03:08:43;22.42;;;12.93;;
28003;SDS011;15330;51.234;6.754;2023-04-06T03:11:08;25.45;;;12.88;;
28003;SDS011;15330;51.234;6.754;2023-04-06T03:13:35;28.65;;;12.82;;
28003;SDS011;15330;51.234;6.754;2023-04-06T03:16:03;23.67;;;12.82;;
28003;SDS011;15330;51.234;6.754;2023-04-06T03:18:29;22.95;;;13.05;;
28003;SDS011;15330;51.234;6.754;2023-04-06T03:20:55;21.40;;;11.75;;
28003;SDS011;15330;51.234;6.754;2023-04-06T03:23:20;21.52;;;12.40;;
28003;SDS011;15330;51.234;6.754;2023-04-06T03:25:46;22.38;;;12.40;;
28003;SDS011;15330;51.234;6.754;2023-04-06T03:28:11;18.92;;;11.68;;
28003;SDS011;15330;51.234;6.754;2023-04-06T03:30:37;20.95;;;11.90;;
28003;SDS011;15330;51.234;6.754;2023-04-06T03:33:02;19.65;;;10.70;;
28003;SDS011;15330;51.234;6.754;2023-04-06T03:35:28;21.35;;;11.23;;
28003;SDS011;15330;51.234;6.754;2023-04-06T03:37:53;20.85;;;10.95;;
28003;SDS011;15330;51.234;6.754;2023-04-06T03:40:19;24.83;;;12.45;;
28003;SDS011;15330;51.234;6.754;2023-04-06T03:42:44;20.45;;;12.10;;
28003;SDS011;15330;51.234;6.754;2023-04-06T03:45:09;20.05;;;11.23;;
28003;SDS011;15330;51.234;6.754;2023-04-06T03:47:35;20.85;;;11.85;;
28003;SDS011;15330;51.234;6.754;2023-04-06T03:50:00;25.20;;;12.13;;
28003;SDS011;15330;51.234;6.754;2023-04-06T03:52:26;21.98;;;11.27;;
28003;SDS011;15330;51.234;6.754;2023-04-06T03:54:51;21.98;;;11.65;;
28003;SDS011;15330;51.234;6.754;2023-04-06T03:57:17;19.15;;;11.57;;
28003;SDS011;15330;51.234;6.754;2023-04-06T03:59:43;19.92;;;11.20;;
28003;SDS011;15330;51.234;6.754;2023-04-06T04:02:08;19.60;;;11.05;;
28003;SDS011;15330;51.234;6.754;2023-04-06T04:04:33;24.40;;;12.55;;
28003;SDS011;15330;51.234;6.754;2023-04-06T04:06:59;21.00;;;11.52;;
28003;SDS011;15330;51.234;6.754;2023-04-06T04:09:24;21.05;;;10.98;;
28003;SDS011;15330;51.234;6.754;2023-04-06T04:11:50;17.58;;;11.00;;
28003;SDS011;15330;51.234;6.754;2023-04-06T04:14:15;19.92;;;11.57;;
28003;SDS011;15330;51.234;6.754;2023-04-06T04:16:41;24.38;;;11.65;;
28003;SDS011;15330;51.234;6.754;2023-04-06T04:19:06;21.20;;;11.77;;
28003;SDS011;15330;51.234;6.754;2023-04-06T04:21:32;19.10;;;11.38;;
28003;SDS011;15330;51.234;6.754;2023-04-06T04:23:57;17.27;;;10.20;;
28003;SDS011;15330;51.234;6.754;2023-04-06T04:26:23;16.63;;;10.48;;
28003;SDS011;15330;51.234;6.754;2023-04-06T04:28:48;22.23;;;11.07;;
28003;SDS011;15330;51.234;6.754;2023-04-06T04:31:14;19.17;;;11.02;;
28003;SDS011;15330;51.234;6.754;2023-04-06T04:33:39;19.45;;;11.50;;
28003;SDS011;15330;51.234;6.754;2023-04-06T04:36:05;21.05;;;10.43;;
28003;SDS011;15330;51.234;6.754;2023-04-06T04:38:30;22.08;;;11.05;;
28003;SDS011;15330;51.234;6.754;2023-04-06T04:40:56;22.55;;;11.68;;
28003;SDS011;15330;51.234;6.754;2023-04-06T04:43:21;18.15;;;11.88;;
28003;SDS011;15330;51.234;6.754;2023-04-06T04:45:47;20.98;;;12.30;;
28003;SDS011;15330;51.234;6.754;2023-04-06T04:48:12;27.55;;;14.77;;
28003;SDS011;15330;51.234;6.754;2023-04-06T04:50:37;22.42;;;12.05;;
28003;SDS011;15330;51.234;6.754;2023-04-06T04:53:03;20.40;;;11.15;;
28003;SDS011;15330;51.234;6.754;2023-04-06T04:55:31;18.58;;;11.05;;
28003;SDS011;15330;51.234;6.754;2023-04-06T04:57:56;17.23;;;10.93;;
28003;SDS011;15330;51.234;6.754;2023-04-06T05:00:22;22.15;;;11.65;;
28003;SDS011;15330;51.234;6.754;2023-04-06T05:02:47;20.70;;;12.40;;
28003;SDS011;15330;51.234;6.754;2023-04-06T05:05:13;19.85;;;10.95;;
28003;SDS011;15330;51.234;6.754;2023-04-06T05:07:38;22.52;;;12.00;;
28003;SDS011;15330;51.234;6.754;2023-04-06T05:10:04;20.17;;;10.45;;
28003;SDS011;15330;51.234;6.754;2023-04-06T05:12:30;22.45;;;11.02;;
28003;SDS011;15330;51.234;6.754;2023-04-06T05:14:55;20.92;;;11.93;;
28003;SDS011;15330;51.234;6.754;2023-04-06T05:17:21;20.70;;;11.23;;
28003;SDS011;15330;51.234;6.754;2023-04-06T05:19:46;20.42;;;11.52;;
28003;SDS011;15330;51.234;6.754;2023-04-06T05:22:12;18.42;;;11.02;;
28003;SDS011;15330;51.234;6.754;2023-04-06T05:24:39;20.38;;;11.32;;
28003;SDS011;15330;51.234;6.754;2023-04-06T05:27:05;17.98;;;11.40;;
28003;SDS011;15330;51.234;6.754;2023-04-06T05:29:31;15.73;;;10.20;;
28003;SDS011;15330;51.234;6.754;2023-04-06T05:31:56;22.67;;;10.70;;
28003;SDS011;15330;51.234;6.754;2023-04-06T05:34:22;19.60;;;10.38;;
28003;SDS011;15330;51.234;6.754;2023-04-06T05:36:47;19.42;;;10.50;;
28003;SDS011;15330;51.234;6.754;2023-04-06T05:39:12;17.83;;;10.20;;
28003;SDS011;15330;51.234;6.754;2023-04-06T05:41:38;19.95;;;11.00;;
28003;SDS011;15330;51.234;6.754;2023-04-06T05:44:03;20.15;;;10.90;;
28003;SDS011;15330;51.234;6.754;2023-04-06T05:46:29;19.13;;;10.32;;
28003;SDS011;15330;51.234;6.754;2023-04-06T05:48:54;18.83;;;10.30;;
28003;SDS011;15330;51.234;6.754;2023-04-06T05:51:20;20.50;;;10.13;;
28003;SDS011;15330;51.234;6.754;2023-04-06T05:53:45;16.40;;;9.70;;
28003;SDS011;15330;51.234;6.754;2023-04-06T05:56:11;16.98;;;10.73;;
28003;SDS011;15330;51.234;6.754;2023-04-06T05:58:37;18.40;;;10.52;;
28003;SDS011;15330;51.234;6.754;2023-04-06T06:01:02;18.15;;;10.40;;
28003;SDS011;15330;51.234;6.754;2023-04-06T06:03:29;21.58;;;10.35;;
28003;SDS011;15330;51.234;6.754;2023-04-06T06:06:04;15.27;;;10.02;;
28003;SDS011;15330;51.234;6.754;2023-04-06T06:08:30;17.05;;;9.85;;
28003;SDS011;15330;51.234;6.754;2023-04-06T06:10:55;23.13;;;10.45;;
28003;SDS011;15330;51.234;6.754;2023-04-06T06:13:24;16.73;;;10.35;;
28003;SDS011;15330;51.234;6.754;2023-04-06T06:15:50;17.02;;;9.65;;
28003;SDS011;15330;51.234;6.754;2023-04-06T06:18:15;19.17;;;9.88;;
28003;SDS011;15330;51.234;6.754;2023-04-06T06:20:41;17.75;;;9.93;;
28003;SDS011;15330;51.234;6.754;2023-04-06T06:23:06;16.77;;;10.02;;
28003;SDS011;15330;51.234;6.754;2023-04-06T06:25:32;17.25;;;10.70;;
28003;SDS011;15330;51.234;6.754;2023-04-06T06:27:58;19.15;;;10.30;;
28003;SDS011;15330;51.234;6.754;2023-04-06T06:30:24;14.05;;;9.88;;
28003;SDS011;15330;51.234;6.754;2023-04-06T06:32:50;18.23;;;10.52;;
28003;SDS011;15330;51.234;6.754;2023-04-06T06:35:16;14.85;;;10.00;;
28003;SDS011;15330;51.234;6.754;2023-04-06T06:37:41;17.27;;;10.15;;
28003;SDS011;15330;51.234;6.754;2023-04-06T06:40:08;16.67;;;10.65;;
28003;SDS011;15330;51.234;6.754;2023-04-06T06:42:34;17.60;;;10.65;;
28003;SDS011;15330;51.234;6.754;2023-04-06T06:44:59;20.27;;;10.63;;
28003;SDS011;15330;51.234;6.754;2023-04-06T06:47:25;17.92;;;10.73;;
28003;SDS011;15330;51.234;6.754;2023-04-06T06:49:51;17.00;;;11.15;;
28003;SDS011;15330;51.234;6.754;2023-04-06T06:52:16;18.75;;;10.40;;
28003;SDS011;15330;51.234;6.754;2023-04-06T06:54:42;14.43;;;10.07;;
28003;SDS011;15330;51.234;6.754;2023-04-06T06:57:07;17.77;;;10.55;;
28003;SDS011;15330;51.234;6.754;2023-04-06T06:59:32;16.35;;;10.70;;
28003;SDS011;15330;51.234;6.754;2023-04-06T07:01:58;14.05;;;10.60;;
28003;SDS011;15330;51.234;6.754;2023-04-06T07:04:23;17.48;;;10.77;;
28003;SDS011;15330;51.234;6.754;2023-04-06T07:06:48;16.23;;;10.52;;
28003;SDS011;15330;51.234;6.754;2023-04-06T07:09:14;16.70;;;11.20;;
28003;SDS011;15330;51.234;6.754;2023-04-06T07:11:39;17.42;;;11.18;;
28003;SDS011;15330;51.234;6.754;2023-04-06T07:14:05;16.20;;;10.52;;
28003;SDS011;15330;51.234;6.754;2023-04-06T07:16:30;21.35;;;11.02;;
28003;SDS011;15330;51.234;6.754;2023-04-06T07:18:55;22.95;;;12.75;;
28003;SDS011;15330;51.234;6.754;2023-04-06T07:21:21;14.68;;;10.20;;
28003;SDS011;15330;51.234;6.754;2023-04-06T07:23:46;17.98;;;10.93;;
28003;SDS011;15330;51.234;6.754;2023-04-06T07:26:13;16.45;;;11.00;;
28003;SDS011;15330;51.234;6.754;2023-04-06T07:28:38;18.52;;;10.63;;
28003;SDS011;15330;51.234;6.754;2023-04-06T07:31:04;17.63;;;11.05;;
28003;SDS011;15330;51.234;6.754;2023-04-06T07:33:29;18.17;;;10.38;;
28003;SDS011;15330;51.234;6.754;2023-04-06T07:35:55;22.33;;;11.35;;
28003;SDS011;15330;51.234;6.754;2023-04-06T07:38:22;25.98;;;12.15;;
28003;SDS011;15330;51.234;6.754;2023-04-06T07:40:47;19.25;;;11.45;;
28003;SDS011;15330;51.234;6.754;2023-04-06T07:43:13;19.23;;;11.00;;
28003;SDS011;15330;51.234;6.754;2023-04-06T07:45:38;20.02;;;12.10;;
28003;SDS011;15330;51.234;6.754;2023-04-06T07:48:03;21.88;;;12.32;;
28003;SDS011;15330;51.234;6.754;2023-04-06T07:50:29;19.88;;;11.93;;
28003;SDS011;15330;51.234;6.754;2023-04-06T07:52:54;23.30;;;12.45;;
28003;SDS011;15330;51.234;6.754;2023-04-06T07:55:20;22.55;;;12.60;;
28003;SDS011;15330;51.234;6.754;2023-04-06T07:57:45;21.15;;;12.48;;
28003;SDS011;15330;51.234;6.754;2023-04-06T08:00:11;18.92;;;12.57;;
28003;SDS011;15330;51.234;6.754;2023-04-06T08:02:36;22.55;;;13.27;;
28003;SDS011;15330;51.234;6.754;2023-04-06T08:05:02;23.38;;;12.52;;
28003;SDS011;15330;51.234;6.754;2023-04-06T08:07:27;20.23;;;12.43;;
28003;SDS011;15330;51.234;6.754;2023-04-06T08:09:53;21.13;;;12.55;;
28003;SDS011;15330;51.234;6.754;2023-04-06T08:12:18;20.30;;;12.27;;
28003;SDS011;15330;51.234;6.754;2023-04-06T08:14:44;20.88;;;11.95;;
28003;SDS011;15330;51.234;6.754;2023-04-06T08:17:09;19.80;;;12.43;;
28003;SDS011;15330;51.234;6.754;2023-04-06T08:19:35;17.27;;;12.18;;
28003;SDS011;15330;51.234;6.754;2023-04-06T08:22:00;19.83;;;12.77;;
28003;SDS011;15330;51.234;6.754;2023-04-06T08:24:25;20.30;;;12.32;;
28003;SDS011;15330;51.234;6.754;2023-04-06T08:26:51;21.80;;;12.75;;
28003;SDS011;15330;51.234;6.754;2023-04-06T08:29:16;17.30;;;12.00;;
28003;SDS011;15330;51.234;6.754;2023-04-06T08:31:42;19.77;;;11.23;;
28003;SDS011;15330;51.234;6.754;2023-04-06T08:34:08;20.30;;;12.35;;
28003;SDS011;15330;51.234;6.754;2023-04-06T08:36:33;20.10;;;12.82;;
28003;SDS011;15330;51.234;6.754;2023-04-06T08:38:59;18.40;;;12.18;;
28003;SDS011;15330;51.234;6.754;2023-04-06T08:41:25;20.30;;;12.13;;
28003;SDS011;15330;51.234;6.754;2023-04-06T08:46:26;22.38;;;12.85;;
28003;SDS011;15330;51.234;6.754;2023-04-06T08:49:02;17.80;;;13.27;;
28003;SDS011;15330;51.234;6.754;2023-04-06T08:51:28;25.33;;;14.90;;
28003;SDS011;15330;51.234;6.754;2023-04-06T08:53:56;22.70;;;13.63;;
28003;SDS011;15330;51.234;6.754;2023-04-06T08:56:26;23.27;;;14.70;;
28003;SDS011;15330;51.234;6.754;2023-04-06T08:58:54;25.15;;;14.43;;
28003;SDS011;15330;51.234;6.754;2023-04-06T09:01:21;23.65;;;15.30;;
28003;SDS011;15330;51.234;6.754;2023-04-06T09:03:49;25.40;;;15.25;;
28003;SDS011;15330;51.234;6.754;2023-04-06T09:06:15;24.85;;;14.90;;
28003;SDS011;15330;51.234;6.754;2023-04-06T09:08:42;22.88;;;14.05;;
28003;SDS011;15330;51.234;6.754;2023-04-06T09:11:07;24.60;;;14.50;;
28003;SDS011;15330;51.234;6.754;2023-04-06T09:16:15;25.55;;;15.23;;
28003;SDS011;15330;51.234;6.754;2023-04-06T09:18:41;22.25;;;14.60;;
28003;SDS011;15330;51.234;6.754;2023-04-06T09:21:07;24.45;;;15.20;;
28003;SDS011;15330;51.234;6.754;2023-04-06T09:23:33;29.48;;;16.15;;
28003;SDS011;15330;51.234;6.754;2023-04-06T09:28:45;29.75;;;17.13;;
28003;SDS011;15330;51.234;6.754;2023-04-06T09:31:14;30.23;;;16.88;;
28003;SDS011;15330;51.234;6.754;2023-04-06T09:33:47;29.23;;;15.73;;
28003;SDS011;15330;51.234;6.754;2023-04-06T09:36:13;28.20;;;16.17;;
28003;SDS011;15330;51.234;6.754;2023-04-06T09:41:29;34.10;;;16.52;;
28003;SDS011;15330;51.234;6.754;2023-04-06T09:44:06;29.23;;;15.70;;
28003;SDS011;15330;51.234;6.754;2023-04-06T09:46:33;28.00;;;15.75;;
28003;SDS011;15330;51.234;6.754;2023-04-06T09:49:01;26.70;;;15.30;;
28003;SDS011;15330;51.234;6.754;2023-04-06T09:51:30;25.25;;;16.10;;
28003;SDS011;15330;51.234;6.754;2023-04-06T09:53:56;23.50;;;14.77;;
28003;SDS011;15330;51.234;6.754;2023-04-06T09:56:28;24.90;;;15.50;;
28003;SDS011;15330;51.234;6.754;2023-04-06T09:58:57;25.52;;;16.13;;
28003;SDS011;15330;51.234;6.754;2023-04-06T10:01:29;33.97;;;18.40;;
28003;SDS011;15330;51.234;6.754;2023-04-06T10:04:03;26.52;;;15.80;;
28003;SDS011;15330;51.234;6.754;2023-04-06T10:06:38;26.15;;;16.58;;
28003;SDS011;15330;51.234;6.754;2023-04-06T10:09:04;33.88;;;17.35;;
28003;SDS011;15330;51.234;6.754;2023-04-06T10:11:33;30.08;;;17.10;;
28003;SDS011;15330;51.234;6.754;2023-04-06T10:13:59;29.63;;;15.65;;
28003;SDS011;15330;51.234;6.754;2023-04-06T10:16:25;28.92;;;16.20;;
28003;SDS011;15330;51.234;6.754;2023-04-06T10:18:54;31.27;;;17.08;;
28003;SDS011;15330;51.234;6.754;2023-04-06T10:21:30;28.10;;;16.50;;
28003;SDS011;15330;51.234;6.754;2023-04-06T10:23:59;27.38;;;16.55;;
28003;SDS011;15330;51.234;6.754;2023-04-06T10:26:25;31.60;;;16.00;;
28003;SDS011;15330;51.234;6.754;2023-04-06T10:28:51;48.75;;;19.33;;
28003;SDS011;15330;51.234;6.754;2023-04-06T10:31:26;33.40;;;18.45;;
28003;SDS011;15330;51.234;6.754;2023-04-06T10:33:53;27.67;;;16.40;;
28003;SDS011;15330;51.234;6.754;2023-04-06T10:36:24;30.80;;;16.73;;
28003;SDS011;15330;51.234;6.754;2023-04-06T10:38:55;31.48;;;17.95;;
28003;SDS011;15330;51.234;6.754;2023-04-06T10:41:23;29.45;;;16.92;;
28003;SDS011;15330;51.234;6.754;2023-04-06T10:43:55;40.55;;;22.13;;
28003;SDS011;15330;51.234;6.754;2023-04-06T10:46:25;29.08;;;16.00;;
28003;SDS011;15330;51.234;6.754;2023-04-06T10:48:52;26.35;;;14.85;;
28003;SDS011;15330;51.234;6.754;2023-04-06T10:51:18;26.67;;;17.13;;
28003;SDS011;15330;51.234;6.754;2023-04-06T10:53:44;27.77;;;17.05;;
28003;SDS011;15330;51.234;6.754;2023-04-06T10:56:14;29.55;;;17.08;;
28003;SDS011;15330;51.234;6.754;2023-04-06T10:58:48;30.00;;;16.33;;
28003;SDS011;15330;51.234;6.754;2023-04-06T11:01:15;27.92;;;16.80;;
28003;SDS011;15330;51.234;6.754;2023-04-06T11:03:42;30.95;;;16.25;;
28003;SDS011;15330;51.234;6.754;2023-04-06T11:06:17;29.55;;;16.00;;
28003;SDS011;15330;51.234;6.754;2023-04-06T11:08:43;26.48;;;15.18;;
28003;SDS011;15330;51.234;6.754;2023-04-06T11:11:12;28.42;;;15.40;;
28003;SDS011;15330;51.234;6.754;2023-04-06T11:13:41;29.38;;;15.68;;
28003;SDS011;15330;51.234;6.754;2023-04-06T11:16:18;29.90;;;15.32;;
28003;SDS011;15330;51.234;6.754;2023-04-06T11:21:15;29.95;;;16.63;;
28003;SDS011;15330;51.234;6.754;2023-04-06T11:23:41;28.45;;;15.65;;
28003;SDS011;15330;51.234;6.754;2023-04-06T11:26:10;31.45;;;17.25;;
28003;SDS011;15330;51.234;6.754;2023-04-06T11:28:41;29.67;;;16.42;;
28003;SDS011;15330;51.234;6.754;2023-04-06T11:31:08;29.33;;;15.55;;
28003;SDS011;15330;51.234;6.754;2023-04-06T11:33:35;26.15;;;15.50;;
28003;SDS011;15330;51.234;6.754;2023-04-06T11:36:01;29.75;;;16.35;;
28003;SDS011;15330;51.234;6.754;2023-04-06T11:38:27;29.83;;;17.08;;
28003;SDS011;15330;51.234;6.754;2023-04-06T11:40:53;27.58;;;15.98;;
28003;SDS011;15330;51.234;6.754;2023-04-06T11:43:25;29.35;;;16.38;;
28003;SDS011;15330;51.234;6.754;2023-04-06T11:45:59;27.23;;;16.13;;
28003;SDS011;15330;51.234;6.754;2023-04-06T11:48:27;27.27;;;14.95;;
28003;SDS011;15330;51.234;6.754;2023-04-06T11:50:56;26.73;;;15.18;;
28003;SDS011;15330;51.234;6.754;2023-04-06T11:55:52;34.30;;;15.45;;
28003;SDS011;15330;51.234;6.754;2023-04-06T11:58:17;33.65;;;16.38;;
28003;SDS011;15330;51.234;6.754;2023-04-06T12:00:43;35.92;;;16.35;;
28003;SDS011;15330;51.234;6.754;2023-04-06T12:03:11;32.72;;;16.35;;
28003;SDS011;15330;51.234;6.754;2023-04-06T12:05:37;34.28;;;15.65;;
28003;SDS011;15330;51.234;6.754;2023-04-06T12:08:03;30.67;;;15.38;;
28003;SDS011;15330;51.234;6.754;2023-04-06T12:10:28;31.25;;;16.15;;
28003;SDS011;15330;51.234;6.754;2023-04-06T12:12:54;31.30;;;15.73;;
28003;SDS011;15330;51.234;6.754;2023-04-06T12:15:20;26.10;;;15.57;;
28003;SDS011;15330;51.234;6.754;2023-04-06T12:17:45;26.73;;;15.45;;
28003;SDS011;15330;51.234;6.754;2023-04-06T12:20:11;32.33;;;16.42;;
28003;SDS011;15330;51.234;6.754;2023-04-06T12:22:36;25.83;;;14.77;;
28003;SDS011;15330;51.234;6.754;2023-04-06T12:25:02;28.00;;;14.48;;
28003;SDS011;15330;51.234;6.754;2023-04-06T12:27:28;30.13;;;14.07;;
28003;SDS011;15330;51.234;6.754;2023-04-06T12:29:53;29.67;;;15.38;;
28003;SDS011;15330;51.234;6.754;2023-04-06T12:32:18;25.75;;;14.10;;
28003;SDS011;15330;51.234;6.754;2023-04-06T12:34:44;29.27;;;15.98;;
28003;SDS011;15330;51.234;6.754;2023-04-06T12:37:09;25.15;;;14.27;;
28003;SDS011;15330;51.234;6.754;2023-04-06T12:39:35;26.45;;;12.50;;
28003;SDS011;15330;51.234;6.754;2023-04-06T12:42:00;22.92;;;12.25;;
28003;SDS011;15330;51.234;6.754;2023-04-06T12:44:27;22.20;;;11.35;;
28003;SDS011;15330;51.234;6.754;2023-04-06T12:46:53;20.38;;;11.43;;
28003;SDS011;15330;51.234;6.754;2023-04-06T12:49:18;18.67;;;11.20;;
28003;SDS011;15330;51.234;6.754;2023-04-06T12:51:44;16.42;;;10.32;;
28003;SDS011;15330;51.234;6.754;2023-04-06T12:54:10;21.10;;;10.93;;
28003;SDS011;15330;51.234;6.754;2023-04-06T12:56:36;19.00;;;10.77;;
28003;SDS011;15330;51.234;6.754;2023-04-06T12:59:02;17.88;;;11.27;;
28003;SDS011;15330;51.234;6.754;2023-04-06T13:01:27;21.42;;;11.02;;
28003;SDS011;15330;51.234;6.754;2023-04-06T13:03:53;21.83;;;10.48;;
28003;SDS011;15330;51.234;6.754;2023-04-06T13:06:18;22.67;;;11.80;;
28003;SDS011;15330;51.234;6.754;2023-04-06T13:08:44;18.98;;;10.90;;
28003;SDS011;15330;51.234;6.754;2023-04-06T13:11:12;19.60;;;11.65;;
28003;SDS011;15330;51.234;6.754;2023-04-06T13:13:37;15.43;;;9.93;;
28003;SDS011;15330;51.234;6.754;2023-04-06T13:16:04;22.77;;;10.75;;
28003;SDS011;15330;51.234;6.754;2023-04-06T13:18:31;21.20;;;10.77;;
28003;SDS011;15330;51.234;6.754;2023-04-06T13:20:57;15.65;;;9.73;;
28003;SDS011;15330;51.234;6.754;2023-04-06T13:23:24;14.00;;;10.18;;
28003;SDS011;15330;51.234;6.754;2023-04-06T13:26:02;18.02;;;10.57;;
28003;SDS011;15330;51.234;6.754;2023-04-06T13:28:30;17.13;;;10.02;;
28003;SDS011;15330;51.234;6.754;2023-04-06T13:31:00;20.70;;;10.52;;
28003;SDS011;15330;51.234;6.754;2023-04-06T13:33:27;21.65;;;12.13;;
28003;SDS011;15330;51.234;6.754;2023-04-06T13:35:53;24.27;;;11.52;;
28003;SDS011;15330;51.234;6.754;2023-04-06T13:38:19;21.20;;;11.88;;
28003;SDS011;15330;51.234;6.754;2023-04-06T13:40:45;17.20;;;11.00;;
28003;SDS011;15330;51.234;6.754;2023-04-06T13:43:10;14.77;;;9.75;;
28003;SDS011;15330;51.234;6.754;2023-04-06T13:45:36;15.40;;;9.98;;
28003;SDS011;15330;51.234;6.754;2023-04-06T13:48:02;18.13;;;10.38;;
28003;SDS011;15330;51.234;6.754;2023-04-06T13:50:28;15.25;;;10.05;;
28003;SDS011;15330;51.234;6.754;2023-04-06T13:52:54;17.75;;;9.77;;
28003;SDS011;15330;51.234;6.754;2023-04-06T13:55:20;14.20;;;8.88;;
28003;SDS011;15330;51.234;6.754;2023-04-06T13:57:46;14.80;;;9.43;;
28003;SDS011;15330;51.234;6.754;2023-04-06T14:00:11;16.27;;;9.48;;
28003;SDS011;15330;51.234;6.754;2023-04-06T14:02:39;17.38;;;10.75;;
28003;SDS011;15330;51.234;6.754;2023-04-06T14:05:05;12.73;;;9.00;;
28003;SDS011;15330;51.234;6.754;2023-04-06T14:07:31;14.32;;;9.60;;
28003;SDS011;15330;51.234;6.754;2023-04-06T14:09:56;18.60;;;10.30;;
28003;SDS011;15330;51.234;6.754;2023-04-06T14:12:21;14.93;;;9.32;;
28003;SDS011;15330;51.234;6.754;2023-04-06T14:14:47;16.58;;;9.60;;
28003;SDS011;15330;51.234;6.754;2023-04-06T14:17:12;15.15;;;10.15;;
28003;SDS011;15330;51.234;6.754;2023-04-06T14:19:38;17.90;;;10.10;;
28003;SDS011;15330;51.234;6.754;2023-04-06T14:22:03;17.73;;;10.93;;
28003;SDS011;15330;51.234;6.754;2023-04-06T14:24:29;16.75;;;11.05;;
28003;SDS011;15330;51.234;6.754;2023-04-06T14:26:55;16.30;;;9.90;;
28003;SDS011;15330;51.234;6.754;2023-04-06T14:29:21;15.98;;;10.60;;
28003;SDS011;15330;51.234;6.754;2023-04-06T14:31:47;17.05;;;9.85;;
28003;SDS011;15330;51.234;6.754;2023-04-06T14:34:13;17.60;;;10.48;;